sensor_id;sensor_type;location;lat;lon;timestamp;P1;durP1;ratioP1;P2;durP2;ratioP2
46290;SDS011;32023;44.444;26.006;2022-09-09T00:04:31;7.50;;;3.42;;
46290;SDS011;32023;44.444;26.006;2022-09-09T00:07:20;11.32;;;3.67;;
46290;SDS011;32023;44.444;26.006;2022-09-09T00:15:57;5.47;;;3.80;;
46290;SDS011;32023;44.444;26.006;2022-09-09T00:18:32;6.30;;;4.30;;
46290;SDS011;32023;44.444;26.006;2022-09-09T00:21:16;9.30;;;4.17;;
46290;SDS011;32023;44.444;26.006;2022-09-09T00:23:50;8.18;;;4.10;;
46290;SDS011;32023;44.444;26.006;2022-09-09T00:34:19;7.72;;;3.88;;
46290;SDS011;32023;44.444;26.006;2022-09-09T00:36:50;11.13;;;4.40;;
46290;SDS011;32023;44.444;26.006;2022-09-09T00:42:19;10.55;;;4.38;;
46290;SDS011;32023;44.444;26.006;2022-09-09T00:45:03;6.93;;;4.40;;
46290;SDS011;32023;44.444;26.006;2022-09-09T00:47:51;8.45;;;5.07;;
46290;SDS011;32023;44.444;26.006;2022-09-09T00:56:17;9.48;;;4.97;;
46290;SDS011;32023;44.444;26.006;2022-09-09T00:58:58;10.38;;;4.95;;
46290;SDS011;32023;44.444;26.006;2022-09-09T01:01:46;7.25;;;4.70;;
46290;SDS011;32023;44.444;26.006;2022-09-09T01:04:16;8.55;;;4.97;;
46290;SDS011;32023;44.444;26.006;2022-09-09T01:06:55;7.65;;;4.97;;
46290;SDS011;32023;44.444;26.006;2022-09-09T01:09:42;7.68;;;5.18;;
46290;SDS011;32023;44.444;26.006;2022-09-09T01:12:44;10.45;;;6.20;;
46290;SDS011;32023;44.444;26.006;2022-09-09T01:15:24;14.13;;;7.10;;
46290;SDS011;32023;44.444;26.006;2022-09-09T01:28:51;16.88;;;7.15;;
46290;SDS011;32023;44.444;26.006;2022-09-09T01:31:19;14.63;;;7.55;;
46290;SDS011;32023;44.444;26.006;2022-09-09T01:33:55;12.95;;;7.22;;
46290;SDS011;32023;44.444;26.006;2022-09-09T01:36:26;13.55;;;7.25;;
46290;SDS011;32023;44.444;26.006;2022-09-09T01:39:05;14.13;;;8.13;;
46290;SDS011;32023;44.444;26.006;2022-09-09T01:41:32;18.15;;;8.25;;
46290;SDS011;32023;44.444;26.006;2022-09-09T01:44:01;12.15;;;8.18;;
46290;SDS011;32023;44.444;26.006;2022-09-09T01:46:28;15.02;;;8.35;;
46290;SDS011;32023;44.444;26.006;2022-09-09T01:48:55;12.18;;;8.15;;
46290;SDS011;32023;44.444;26.006;2022-09-09T01:51:24;13.13;;;8.23;;
46290;SDS011;32023;44.444;26.006;2022-09-09T01:53:50;14.35;;;7.93;;
46290;SDS011;32023;44.444;26.006;2022-09-09T02:02:09;11.23;;;8.27;;
46290;SDS011;32023;44.444;26.006;2022-09-09T02:04:47;21.13;;;8.82;;
46290;SDS011;32023;44.444;26.006;2022-09-09T02:10:50;15.60;;;8.95;;
46290;SDS011;32023;44.444;26.006;2022-09-09T02:13:16;26.23;;;9.18;;
46290;SDS011;32023;44.444;26.006;2022-09-09T02:16:02;13.95;;;8.88;;
46290;SDS011;32023;44.444;26.006;2022-09-09T02:18:38;15.23;;;8.73;;
46290;SDS011;32023;44.444;26.006;2022-09-09T02:21:10;15.50;;;8.73;;
46290;SDS011;32023;44.444;26.006;2022-09-09T02:23:39;23.15;;;8.68;;
46290;SDS011;32023;44.444;26.006;2022-09-09T02:26:08;17.48;;;8.88;;
46290;SDS011;32023;44.444;26.006;2022-09-09T02:28:40;12.15;;;8.40;;
46290;SDS011;32023;44.444;26.006;2022-09-09T02:31:10;16.15;;;8.65;;
46290;SDS011;32023;44.444;26.006;2022-09-09T02:33:40;17.75;;;9.18;;
46290;SDS011;32023;44.444;26.006;2022-09-09T02:38:46;14.98;;;8.90;;
46290;SDS011;32023;44.444;26.006;2022-09-09T02:41:23;13.75;;;9.07;;
46290;SDS011;32023;44.444;26.006;2022-09-09T02:44:02;17.13;;;9.20;;
46290;SDS011;32023;44.444;26.006;2022-09-09T03:03:08;17.83;;;9.57;;
46290;SDS011;32023;44.444;26.006;2022-09-09T03:05:43;14.45;;;9.07;;
46290;SDS011;32023;44.444;26.006;2022-09-09T03:08:10;14.93;;;9.07;;
46290;SDS011;32023;44.444;26.006;2022-09-09T03:10:38;14.70;;;10.50;;
46290;SDS011;32023;44.444;26.006;2022-09-09T03:13:05;15.05;;;10.40;;
46290;SDS011;32023;44.444;26.006;2022-09-09T03:15:32;19.25;;;10.00;;
46290;SDS011;32023;44.444;26.006;2022-09-09T03:17:59;17.35;;;9.48;;
46290;SDS011;32023;44.444;26.006;2022-09-09T03:20:26;21.23;;;10.45;;
46290;SDS011;32023;44.444;26.006;2022-09-09T03:22:54;16.52;;;10.48;;
46290;SDS011;32023;44.444;26.006;2022-09-09T03:25:22;19.75;;;9.50;;
46290;SDS011;32023;44.444;26.006;2022-09-09T03:27:50;16.40;;;9.35;;
46290;SDS011;32023;44.444;26.006;2022-09-09T03:30:20;21.50;;;9.95;;
46290;SDS011;32023;44.444;26.006;2022-09-09T03:32:47;18.33;;;9.30;;
46290;SDS011;32023;44.444;26.006;2022-09-09T03:35:14;20.35;;;10.32;;
46290;SDS011;32023;44.444;26.006;2022-09-09T03:37:43;15.85;;;9.85;;
46290;SDS011;32023;44.444;26.006;2022-09-09T03:40:10;25.73;;;9.95;;
46290;SDS011;32023;44.444;26.006;2022-09-09T03:42:40;20.33;;;9.95;;
46290;SDS011;32023;44.444;26.006;2022-09-09T03:45:07;25.42;;;10.05;;
46290;SDS011;32023;44.444;26.006;2022-09-09T03:47:35;23.15;;;9.55;;
46290;SDS011;32023;44.444;26.006;2022-09-09T03:50:19;17.58;;;10.15;;
46290;SDS011;32023;44.444;26.006;2022-09-09T03:52:46;25.33;;;10.88;;
46290;SDS011;32023;44.444;26.006;2022-09-09T03:55:13;13.98;;;9.38;;
46290;SDS011;32023;44.444;26.006;2022-09-09T03:57:40;19.45;;;10.93;;
46290;SDS011;32023;44.444;26.006;2022-09-09T04:00:06;20.10;;;9.50;;
46290;SDS011;32023;44.444;26.006;2022-09-09T04:05:58;28.77;;;10.05;;
46290;SDS011;32023;44.444;26.006;2022-09-09T04:08:27;20.95;;;10.30;;
46290;SDS011;32023;44.444;26.006;2022-09-09T04:13:56;21.27;;;8.95;;
46290;SDS011;32023;44.444;26.006;2022-09-09T04:16:22;23.27;;;8.25;;
46290;SDS011;32023;44.444;26.006;2022-09-09T04:18:51;20.50;;;8.35;;
46290;SDS011;32023;44.444;26.006;2022-09-09T04:21:18;26.25;;;7.78;;
46290;SDS011;32023;44.444;26.006;2022-09-09T04:23:45;21.20;;;8.15;;
46290;SDS011;32023;44.444;26.006;2022-09-09T04:26:11;10.93;;;6.47;;
46290;SDS011;32023;44.444;26.006;2022-09-09T04:28:38;11.80;;;6.97;;
46290;SDS011;32023;44.444;26.006;2022-09-09T04:31:05;15.93;;;6.03;;
46290;SDS011;32023;44.444;26.006;2022-09-09T04:33:50;17.27;;;6.53;;
46290;SDS011;32023;44.444;26.006;2022-09-09T04:36:19;14.50;;;6.32;;
46290;SDS011;32023;44.444;26.006;2022-09-09T04:38:46;11.82;;;5.55;;
46290;SDS011;32023;44.444;26.006;2022-09-09T04:41:14;15.85;;;5.93;;
46290;SDS011;32023;44.444;26.006;2022-09-09T04:43:43;13.70;;;6.82;;
46290;SDS011;32023;44.444;26.006;2022-09-09T04:46:10;13.77;;;5.93;;
46290;SDS011;32023;44.444;26.006;2022-09-09T04:48:37;15.00;;;6.03;;
46290;SDS011;32023;44.444;26.006;2022-09-09T04:51:05;12.57;;;6.15;;
46290;SDS011;32023;44.444;26.006;2022-09-09T04:53:35;11.95;;;6.65;;
46290;SDS011;32023;44.444;26.006;2022-09-09T04:58:56;11.45;;;6.03;;
46290;SDS011;32023;44.444;26.006;2022-09-09T05:01:26;14.30;;;6.13;;
46290;SDS011;32023;44.444;26.006;2022-09-09T05:03:56;12.50;;;6.03;;
46290;SDS011;32023;44.444;26.006;2022-09-09T05:06:24;15.45;;;5.63;;
46290;SDS011;32023;44.444;26.006;2022-09-09T05:08:53;9.85;;;5.20;;
46290;SDS011;32023;44.444;26.006;2022-09-09T05:11:26;11.30;;;5.40;;
46290;SDS011;32023;44.444;26.006;2022-09-09T05:14:08;10.20;;;5.55;;
46290;SDS011;32023;44.444;26.006;2022-09-09T05:16:37;9.73;;;5.70;;
46290;SDS011;32023;44.444;26.006;2022-09-09T05:27:41;15.73;;;4.88;;
46290;SDS011;32023;44.444;26.006;2022-09-09T05:41:47;15.45;;;5.38;;
46290;SDS011;32023;44.444;26.006;2022-09-09T06:07:32;5.88;;;3.60;;
46290;SDS011;32023;44.444;26.006;2022-09-09T06:10:15;11.18;;;4.03;;
46290;SDS011;32023;44.444;26.006;2022-09-09T06:37:02;11.00;;;3.72;;
46290;SDS011;32023;44.444;26.006;2022-09-09T06:42:22;8.60;;;3.65;;
46290;SDS011;32023;44.444;26.006;2022-09-09T07:11:14;8.13;;;2.90;;
46290;SDS011;32023;44.444;26.006;2022-09-09T07:14:11;9.48;;;2.65;;
46290;SDS011;32023;44.444;26.006;2022-09-09T07:20:04;8.00;;;3.05;;
46290;SDS011;32023;44.444;26.006;2022-09-09T07:22:41;9.95;;;2.80;;
46290;SDS011;32023;44.444;26.006;2022-09-09T07:25:20;7.90;;;3.00;;
46290;SDS011;32023;44.444;26.006;2022-09-09T07:28:00;7.47;;;2.88;;
46290;SDS011;32023;44.444;26.006;2022-09-09T07:30:59;4.80;;;2.55;;
46290;SDS011;32023;44.444;26.006;2022-09-09T07:33:48;12.93;;;3.20;;
46290;SDS011;32023;44.444;26.006;2022-09-09T07:38:51;9.00;;;3.15;;
46290;SDS011;32023;44.444;26.006;2022-09-09T07:41:25;15.55;;;3.80;;
46290;SDS011;32023;44.444;26.006;2022-09-09T07:43:59;15.93;;;2.97;;
46290;SDS011;32023;44.444;26.006;2022-09-09T07:46:33;10.68;;;3.45;;
46290;SDS011;32023;44.444;26.006;2022-09-09T07:49:00;9.27;;;3.35;;
46290;SDS011;32023;44.444;26.006;2022-09-09T07:51:29;12.63;;;3.30;;
46290;SDS011;32023;44.444;26.006;2022-09-09T07:54:01;12.00;;;2.67;;
46290;SDS011;32023;44.444;26.006;2022-09-09T07:56:30;9.13;;;2.95;;
46290;SDS011;32023;44.444;26.006;2022-09-09T07:58:57;8.10;;;3.08;;
46290;SDS011;32023;44.444;26.006;2022-09-09T08:01:28;9.52;;;2.47;;
46290;SDS011;32023;44.444;26.006;2022-09-09T08:04:05;10.02;;;3.30;;
46290;SDS011;32023;44.444;26.006;2022-09-09T08:06:39;7.85;;;2.97;;
46290;SDS011;32023;44.444;26.006;2022-09-09T08:09:09;10.73;;;2.83;;
46290;SDS011;32023;44.444;26.006;2022-09-09T08:11:37;5.75;;;2.83;;
46290;SDS011;32023;44.444;26.006;2022-09-09T08:14:04;13.70;;;3.05;;
46290;SDS011;32023;44.444;26.006;2022-09-09T08:16:36;6.07;;;2.45;;
46290;SDS011;32023;44.444;26.006;2022-09-09T08:19:21;9.90;;;2.92;;
46290;SDS011;32023;44.444;26.006;2022-09-09T08:21:59;11.77;;;2.78;;
46290;SDS011;32023;44.444;26.006;2022-09-09T08:24:27;7.85;;;2.65;;
46290;SDS011;32023;44.444;26.006;2022-09-09T08:26:57;13.27;;;2.80;;
46290;SDS011;32023;44.444;26.006;2022-09-09T08:29:29;8.43;;;3.10;;
46290;SDS011;32023;44.444;26.006;2022-09-09T08:32:27;12.73;;;3.13;;
46290;SDS011;32023;44.444;26.006;2022-09-09T08:35:08;11.75;;;4.22;;
46290;SDS011;32023;44.444;26.006;2022-09-09T08:51:43;14.48;;;3.15;;
46290;SDS011;32023;44.444;26.006;2022-09-09T08:59:26;17.92;;;7.75;;
46290;SDS011;32023;44.444;26.006;2022-09-09T09:15:17;15.18;;;3.55;;
46290;SDS011;32023;44.444;26.006;2022-09-09T09:33:22;14.75;;;3.20;;
46290;SDS011;32023;44.444;26.006;2022-09-09T09:36:00;15.07;;;3.22;;
46290;SDS011;32023;44.444;26.006;2022-09-09T09:38:30;9.02;;;2.88;;
46290;SDS011;32023;44.444;26.006;2022-09-09T09:41:39;12.90;;;3.10;;
46290;SDS011;32023;44.444;26.006;2022-09-09T09:44:28;5.45;;;2.85;;
46290;SDS011;32023;44.444;26.006;2022-09-09T09:47:10;13.27;;;3.40;;
46290;SDS011;32023;44.444;26.006;2022-09-09T09:49:58;16.02;;;3.15;;
46290;SDS011;32023;44.444;26.006;2022-09-09T09:52:28;9.07;;;3.28;;
46290;SDS011;32023;44.444;26.006;2022-09-09T09:54:57;8.10;;;2.95;;
46290;SDS011;32023;44.444;26.006;2022-09-09T09:57:28;9.35;;;3.05;;
46290;SDS011;32023;44.444;26.006;2022-09-09T10:00:31;10.48;;;3.40;;
46290;SDS011;32023;44.444;26.006;2022-09-09T10:02:51;15.23;;;3.17;;
46290;SDS011;32023;44.444;26.006;2022-09-09T10:05:19;8.13;;;3.67;;
46290;SDS011;32023;44.444;26.006;2022-09-09T10:23:11;10.95;;;3.40;;
46290;SDS011;32023;44.444;26.006;2022-09-09T10:29:16;10.57;;;3.45;;
46290;SDS011;32023;44.444;26.006;2022-09-09T10:35:33;9.63;;;3.30;;
46290;SDS011;32023;44.444;26.006;2022-09-09T10:39:03;7.55;;;3.42;;
46290;SDS011;32023;44.444;26.006;2022-09-09T10:43:56;7.20;;;3.22;;
46290;SDS011;32023;44.444;26.006;2022-09-09T10:53:17;11.25;;;3.47;;
46290;SDS011;32023;44.444;26.006;2022-09-09T10:56:11;8.65;;;3.05;;
46290;SDS011;32023;44.444;26.006;2022-09-09T10:58:53;13.18;;;3.65;;
46290;SDS011;32023;44.444;26.006;2022-09-09T11:05:08;10.20;;;3.35;;
46290;SDS011;32023;44.444;26.006;2022-09-09T11:14:03;10.77;;;3.30;;
46290;SDS011;32023;44.444;26.006;2022-09-09T11:19:16;9.02;;;3.05;;
46290;SDS011;32023;44.444;26.006;2022-09-09T11:21:49;6.03;;;3.20;;
46290;SDS011;32023;44.444;26.006;2022-09-09T11:24:29;8.80;;;2.83;;
46290;SDS011;32023;44.444;26.006;2022-09-09T11:27:17;6.85;;;2.90;;
46290;SDS011;32023;44.444;26.006;2022-09-09T11:32:48;16.48;;;3.00;;
46290;SDS011;32023;44.444;26.006;2022-09-09T11:35:47;10.48;;;3.20;;
46290;SDS011;32023;44.444;26.006;2022-09-09T11:38:45;4.90;;;3.00;;
46290;SDS011;32023;44.444;26.006;2022-09-09T11:41:16;10.93;;;2.83;;
46290;SDS011;32023;44.444;26.006;2022-09-09T11:43:46;10.88;;;2.80;;
46290;SDS011;32023;44.444;26.006;2022-09-09T11:46:17;13.82;;;2.85;;
46290;SDS011;32023;44.444;26.006;2022-09-09T11:49:39;6.15;;;2.95;;
46290;SDS011;32023;44.444;26.006;2022-09-09T12:01:45;7.10;;;3.10;;
46290;SDS011;32023;44.444;26.006;2022-09-09T12:05:09;11.27;;;3.22;;
46290;SDS011;32023;44.444;26.006;2022-09-09T12:20:37;12.48;;;3.80;;
46290;SDS011;32023;44.444;26.006;2022-09-09T12:34:13;10.63;;;3.10;;
46290;SDS011;32023;44.444;26.006;2022-09-09T12:37:11;9.73;;;3.22;;
46290;SDS011;32023;44.444;26.006;2022-09-09T12:43:20;9.85;;;3.22;;
46290;SDS011;32023;44.444;26.006;2022-09-09T12:49:22;8.48;;;3.28;;
46290;SDS011;32023;44.444;26.006;2022-09-09T12:52:03;15.85;;;3.45;;
46290;SDS011;32023;44.444;26.006;2022-09-09T12:54:43;21.58;;;3.42;;
46290;SDS011;32023;44.444;26.006;2022-09-09T13:00:54;14.07;;;3.40;;
46290;SDS011;32023;44.444;26.006;2022-09-09T13:06:53;22.02;;;4.35;;
46290;SDS011;32023;44.444;26.006;2022-09-09T13:09:45;16.35;;;3.58;;
46290;SDS011;32023;44.444;26.006;2022-09-09T13:12:48;11.32;;;3.40;;
46290;SDS011;32023;44.444;26.006;2022-09-09T13:15:54;16.90;;;4.35;;
46290;SDS011;32023;44.444;26.006;2022-09-09T13:19:20;15.50;;;4.03;;
46290;SDS011;32023;44.444;26.006;2022-09-09T13:25:13;8.27;;;3.70;;
46290;SDS011;32023;44.444;26.006;2022-09-09T13:28:18;10.20;;;3.78;;
46290;SDS011;32023;44.444;26.006;2022-09-09T13:30:56;9.15;;;3.15;;
46290;SDS011;32023;44.444;26.006;2022-09-09T13:36:29;20.60;;;4.22;;
46290;SDS011;32023;44.444;26.006;2022-09-09T13:39:16;12.95;;;3.72;;
46290;SDS011;32023;44.444;26.006;2022-09-09T13:44:24;10.80;;;3.67;;
46290;SDS011;32023;44.444;26.006;2022-09-09T13:47:05;14.38;;;4.25;;
46290;SDS011;32023;44.444;26.006;2022-09-09T13:49:52;13.88;;;3.42;;
46290;SDS011;32023;44.444;26.006;2022-09-09T13:52:31;12.82;;;3.28;;
46290;SDS011;32023;44.444;26.006;2022-09-09T13:55:01;14.68;;;4.32;;
46290;SDS011;32023;44.444;26.006;2022-09-09T13:57:27;19.73;;;3.85;;
46290;SDS011;32023;44.444;26.006;2022-09-09T13:59:56;15.10;;;4.03;;
46290;SDS011;32023;44.444;26.006;2022-09-09T14:02:29;17.13;;;3.92;;
46290;SDS011;32023;44.444;26.006;2022-09-09T14:05:12;17.33;;;3.50;;
46290;SDS011;32023;44.444;26.006;2022-09-09T14:07:41;12.43;;;4.15;;
46290;SDS011;32023;44.444;26.006;2022-09-09T14:10:11;22.10;;;4.95;;
46290;SDS011;32023;44.444;26.006;2022-09-09T14:12:41;23.10;;;4.90;;
46290;SDS011;32023;44.444;26.006;2022-09-09T14:15:11;12.77;;;4.80;;
46290;SDS011;32023;44.444;26.006;2022-09-09T14:17:41;18.15;;;4.75;;
46290;SDS011;32023;44.444;26.006;2022-09-09T14:20:08;22.90;;;4.75;;
46290;SDS011;32023;44.444;26.006;2022-09-09T14:22:37;12.23;;;4.10;;
46290;SDS011;32023;44.444;26.006;2022-09-09T14:25:06;10.35;;;3.90;;
46290;SDS011;32023;44.444;26.006;2022-09-09T14:27:33;16.38;;;4.10;;
46290;SDS011;32023;44.444;26.006;2022-09-09T14:29:59;15.63;;;4.50;;
46290;SDS011;32023;44.444;26.006;2022-09-09T14:32:26;7.85;;;3.97;;
46290;SDS011;32023;44.444;26.006;2022-09-09T14:34:52;11.05;;;4.15;;
46290;SDS011;32023;44.444;26.006;2022-09-09T14:37:22;14.88;;;4.75;;
46290;SDS011;32023;44.444;26.006;2022-09-09T14:39:54;12.35;;;5.20;;
46290;SDS011;32023;44.444;26.006;2022-09-09T14:42:21;13.38;;;4.78;;
46290;SDS011;32023;44.444;26.006;2022-09-09T14:45:04;13.75;;;4.32;;
46290;SDS011;32023;44.444;26.006;2022-09-09T14:47:31;9.10;;;4.05;;
46290;SDS011;32023;44.444;26.006;2022-09-09T14:50:01;9.50;;;3.97;;
46290;SDS011;32023;44.444;26.006;2022-09-09T14:52:30;14.23;;;4.47;;
46290;SDS011;32023;44.444;26.006;2022-09-09T14:54:56;16.10;;;3.70;;
46290;SDS011;32023;44.444;26.006;2022-09-09T14:57:23;11.55;;;3.85;;
46290;SDS011;32023;44.444;26.006;2022-09-09T14:59:49;20.85;;;4.07;;
46290;SDS011;32023;44.444;26.006;2022-09-09T15:02:17;12.07;;;4.35;;
46290;SDS011;32023;44.444;26.006;2022-09-09T15:04:46;19.08;;;3.80;;
46290;SDS011;32023;44.444;26.006;2022-09-09T15:07:18;15.25;;;3.75;;
46290;SDS011;32023;44.444;26.006;2022-09-09T15:09:46;17.95;;;3.88;;
46290;SDS011;32023;44.444;26.006;2022-09-09T15:12:23;13.43;;;4.15;;
46290;SDS011;32023;44.444;26.006;2022-09-09T15:14:50;9.90;;;4.13;;
46290;SDS011;32023;44.444;26.006;2022-09-09T15:17:32;8.80;;;3.40;;
46290;SDS011;32023;44.444;26.006;2022-09-09T15:20:00;10.65;;;3.92;;
46290;SDS011;32023;44.444;26.006;2022-09-09T15:22:31;15.57;;;3.80;;
46290;SDS011;32023;44.444;26.006;2022-09-09T15:25:09;14.85;;;3.92;;
46290;SDS011;32023;44.444;26.006;2022-09-09T15:27:42;15.43;;;4.03;;
46290;SDS011;32023;44.444;26.006;2022-09-09T15:30:11;16.52;;;4.13;;
46290;SDS011;32023;44.444;26.006;2022-09-09T15:35:18;10.30;;;3.90;;
46290;SDS011;32023;44.444;26.006;2022-09-09T15:38:04;14.07;;;4.20;;
46290;SDS011;32023;44.444;26.006;2022-09-09T15:46:40;20.48;;;4.40;;
46290;SDS011;32023;44.444;26.006;2022-09-09T15:52:09;12.35;;;4.00;;
46290;SDS011;32023;44.444;26.006;2022-09-09T15:54:39;13.60;;;4.95;;
46290;SDS011;32023;44.444;26.006;2022-09-09T15:57:10;12.10;;;4.45;;
46290;SDS011;32023;44.444;26.006;2022-09-09T15:59:40;12.07;;;4.18;;
46290;SDS011;32023;44.444;26.006;2022-09-09T16:02:47;11.32;;;4.38;;
46290;SDS011;32023;44.444;26.006;2022-09-09T16:05:15;10.40;;;4.07;;
46290;SDS011;32023;44.444;26.006;2022-09-09T16:07:42;17.25;;;4.78;;
46290;SDS011;32023;44.444;26.006;2022-09-09T16:10:10;10.80;;;4.10;;
46290;SDS011;32023;44.444;26.006;2022-09-09T16:12:38;20.40;;;4.90;;
46290;SDS011;32023;44.444;26.006;2022-09-09T16:15:05;11.13;;;4.75;;
46290;SDS011;32023;44.444;26.006;2022-09-09T16:17:32;11.73;;;4.88;;
46290;SDS011;32023;44.444;26.006;2022-09-09T16:20:03;13.75;;;4.70;;
46290;SDS011;32023;44.444;26.006;2022-09-09T16:22:34;18.30;;;5.53;;
46290;SDS011;32023;44.444;26.006;2022-09-09T16:25:05;16.85;;;5.32;;
46290;SDS011;32023;44.444;26.006;2022-09-09T16:27:43;25.10;;;5.68;;
46290;SDS011;32023;44.444;26.006;2022-09-09T16:30:11;13.10;;;4.97;;
46290;SDS011;32023;44.444;26.006;2022-09-09T16:32:38;17.35;;;4.78;;
46290;SDS011;32023;44.444;26.006;2022-09-09T16:35:07;16.20;;;5.00;;
46290;SDS011;32023;44.444;26.006;2022-09-09T16:37:47;21.73;;;4.95;;
46290;SDS011;32023;44.444;26.006;2022-09-09T16:40:16;22.10;;;5.30;;
46290;SDS011;32023;44.444;26.006;2022-09-09T16:42:42;13.93;;;5.07;;
46290;SDS011;32023;44.444;26.006;2022-09-09T16:45:09;13.02;;;5.47;;
46290;SDS011;32023;44.444;26.006;2022-09-09T16:47:36;17.75;;;5.80;;
46290;SDS011;32023;44.444;26.006;2022-09-09T16:50:05;24.02;;;5.50;;
46290;SDS011;32023;44.444;26.006;2022-09-09T16:52:35;21.50;;;6.00;;
46290;SDS011;32023;44.444;26.006;2022-09-09T16:55:13;14.13;;;5.78;;
46290;SDS011;32023;44.444;26.006;2022-09-09T16:57:39;9.27;;;5.25;;
46290;SDS011;32023;44.444;26.006;2022-09-09T17:00:06;11.90;;;4.97;;
46290;SDS011;32023;44.444;26.006;2022-09-09T17:02:33;10.23;;;5.05;;
46290;SDS011;32023;44.444;26.006;2022-09-09T17:05:00;9.75;;;4.88;;
46290;SDS011;32023;44.444;26.006;2022-09-09T17:07:44;9.95;;;4.72;;
46290;SDS011;32023;44.444;26.006;2022-09-09T17:10:12;13.10;;;5.18;;
46290;SDS011;32023;44.444;26.006;2022-09-09T17:12:41;11.93;;;4.88;;
46290;SDS011;32023;44.444;26.006;2022-09-09T17:15:18;8.38;;;4.78;;
46290;SDS011;32023;44.444;26.006;2022-09-09T17:17:46;11.38;;;5.47;;
46290;SDS011;32023;44.444;26.006;2022-09-09T17:20:26;13.95;;;4.82;;
46290;SDS011;32023;44.444;26.006;2022-09-09T17:23:10;13.45;;;4.70;;
46290;SDS011;32023;44.444;26.006;2022-09-09T17:25:42;19.63;;;4.60;;
46290;SDS011;32023;44.444;26.006;2022-09-09T17:28:10;12.18;;;4.43;;
46290;SDS011;32023;44.444;26.006;2022-09-09T17:30:37;12.70;;;4.75;;
46290;SDS011;32023;44.444;26.006;2022-09-09T17:33:04;11.02;;;4.55;;
46290;SDS011;32023;44.444;26.006;2022-09-09T17:35:33;14.00;;;4.60;;
46290;SDS011;32023;44.444;26.006;2022-09-09T17:38:26;8.73;;;4.10;;
46290;SDS011;32023;44.444;26.006;2022-09-09T17:41:07;8.13;;;4.53;;
46290;SDS011;32023;44.444;26.006;2022-09-09T17:43:46;7.43;;;4.30;;
46290;SDS011;32023;44.444;26.006;2022-09-09T17:48:47;9.20;;;5.03;;
46290;SDS011;32023;44.444;26.006;2022-09-09T17:51:19;15.02;;;4.88;;
46290;SDS011;32023;44.444;26.006;2022-09-09T17:53:53;11.68;;;4.47;;
46290;SDS011;32023;44.444;26.006;2022-09-09T17:56:23;9.63;;;5.05;;
46290;SDS011;32023;44.444;26.006;2022-09-09T17:58:53;9.13;;;5.25;;
46290;SDS011;32023;44.444;26.006;2022-09-09T18:01:22;14.02;;;5.00;;
46290;SDS011;32023;44.444;26.006;2022-09-09T18:03:54;13.35;;;4.40;;
46290;SDS011;32023;44.444;26.006;2022-09-09T18:06:29;10.95;;;5.72;;
46290;SDS011;32023;44.444;26.006;2022-09-09T18:08:59;11.27;;;5.53;;
46290;SDS011;32023;44.444;26.006;2022-09-09T18:11:31;15.52;;;5.65;;
46290;SDS011;32023;44.444;26.006;2022-09-09T18:16:35;13.32;;;5.45;;
46290;SDS011;32023;44.444;26.006;2022-09-09T18:19:07;12.23;;;6.03;;
46290;SDS011;32023;44.444;26.006;2022-09-09T18:21:43;15.20;;;5.55;;
46290;SDS011;32023;44.444;26.006;2022-09-09T18:24:10;11.60;;;5.72;;
46290;SDS011;32023;44.444;26.006;2022-09-09T18:26:39;10.57;;;5.35;;
46290;SDS011;32023;44.444;26.006;2022-09-09T18:32:15;13.07;;;6.20;;
46290;SDS011;32023;44.444;26.006;2022-09-09T18:34:44;16.05;;;6.63;;
46290;SDS011;32023;44.444;26.006;2022-09-09T18:37:10;16.63;;;6.45;;
46290;SDS011;32023;44.444;26.006;2022-09-09T18:39:39;12.38;;;6.00;;
46290;SDS011;32023;44.444;26.006;2022-09-09T18:42:06;14.25;;;5.55;;
46290;SDS011;32023;44.444;26.006;2022-09-09T18:44:33;16.30;;;6.10;;
46290;SDS011;32023;44.444;26.006;2022-09-09T18:47:00;14.60;;;6.63;;
46290;SDS011;32023;44.444;26.006;2022-09-09T18:49:27;12.55;;;6.43;;
46290;SDS011;32023;44.444;26.006;2022-09-09T18:51:57;16.40;;;6.28;;
46290;SDS011;32023;44.444;26.006;2022-09-09T18:54:27;17.88;;;6.03;;
46290;SDS011;32023;44.444;26.006;2022-09-09T19:00:23;20.25;;;6.70;;
46290;SDS011;32023;44.444;26.006;2022-09-09T19:02:50;16.88;;;8.30;;
46290;SDS011;32023;44.444;26.006;2022-09-09T19:05:21;25.13;;;10.32;;
46290;SDS011;32023;44.444;26.006;2022-09-09T19:07:51;23.65;;;12.10;;
46290;SDS011;32023;44.444;26.006;2022-09-09T19:10:20;22.88;;;13.02;;
46290;SDS011;32023;44.444;26.006;2022-09-09T19:12:55;24.55;;;13.02;;
46290;SDS011;32023;44.444;26.006;2022-09-09T19:15:22;19.30;;;12.40;;
46290;SDS011;32023;44.444;26.006;2022-09-09T19:17:48;14.23;;;8.88;;
46290;SDS011;32023;44.444;26.006;2022-09-09T19:20:14;15.32;;;7.53;;
46290;SDS011;32023;44.444;26.006;2022-09-09T19:22:41;19.52;;;6.70;;
46290;SDS011;32023;44.444;26.006;2022-09-09T19:25:14;10.02;;;7.05;;
46290;SDS011;32023;44.444;26.006;2022-09-09T19:27:41;21.65;;;6.95;;
46290;SDS011;32023;44.444;26.006;2022-09-09T19:30:21;19.55;;;7.15;;
46290;SDS011;32023;44.444;26.006;2022-09-09T19:32:54;22.25;;;7.13;;
46290;SDS011;32023;44.444;26.006;2022-09-09T19:35:24;16.45;;;6.75;;
46290;SDS011;32023;44.444;26.006;2022-09-09T19:37:50;18.63;;;8.07;;
46290;SDS011;32023;44.444;26.006;2022-09-09T19:40:17;11.23;;;6.90;;
46290;SDS011;32023;44.444;26.006;2022-09-09T19:42:46;12.90;;;7.07;;
46290;SDS011;32023;44.444;26.006;2022-09-09T19:45:24;12.88;;;6.50;;
46290;SDS011;32023;44.444;26.006;2022-09-09T19:47:51;14.20;;;6.80;;
46290;SDS011;32023;44.444;26.006;2022-09-09T19:50:21;14.27;;;7.50;;
46290;SDS011;32023;44.444;26.006;2022-09-09T19:52:50;12.40;;;6.57;;
46290;SDS011;32023;44.444;26.006;2022-09-09T19:55:16;17.40;;;6.82;;
46290;SDS011;32023;44.444;26.006;2022-09-09T19:57:45;10.93;;;6.53;;
46290;SDS011;32023;44.444;26.006;2022-09-09T20:00:18;13.35;;;6.32;;
46290;SDS011;32023;44.444;26.006;2022-09-09T20:02:45;15.38;;;6.53;;
46290;SDS011;32023;44.444;26.006;2022-09-09T20:05:14;12.98;;;6.07;;
46290;SDS011;32023;44.444;26.006;2022-09-09T20:07:41;21.20;;;6.05;;
46290;SDS011;32023;44.444;26.006;2022-09-09T20:10:08;12.40;;;6.28;;
46290;SDS011;32023;44.444;26.006;2022-09-09T20:12:38;14.55;;;5.75;;
46290;SDS011;32023;44.444;26.006;2022-09-09T20:15:05;12.32;;;5.72;;
46290;SDS011;32023;44.444;26.006;2022-09-09T20:17:35;13.43;;;5.95;;
46290;SDS011;32023;44.444;26.006;2022-09-09T20:20:05;7.80;;;5.93;;
46290;SDS011;32023;44.444;26.006;2022-09-09T20:22:34;14.57;;;6.72;;
46290;SDS011;32023;44.444;26.006;2022-09-09T20:25:01;13.65;;;6.95;;
46290;SDS011;32023;44.444;26.006;2022-09-09T20:27:28;14.50;;;6.45;;
46290;SDS011;32023;44.444;26.006;2022-09-09T20:29:55;13.75;;;6.38;;
46290;SDS011;32023;44.444;26.006;2022-09-09T20:32:24;10.07;;;5.78;;
46290;SDS011;32023;44.444;26.006;2022-09-09T20:34:54;16.73;;;6.53;;
46290;SDS011;32023;44.444;26.006;2022-09-09T20:37:21;13.05;;;6.38;;
46290;SDS011;32023;44.444;26.006;2022-09-09T20:39:48;13.07;;;6.25;;
46290;SDS011;32023;44.444;26.006;2022-09-09T20:42:14;10.77;;;6.53;;
46290;SDS011;32023;44.444;26.006;2022-09-09T20:44:51;16.20;;;7.22;;
46290;SDS011;32023;44.444;26.006;2022-09-09T20:47:17;17.25;;;6.70;;
46290;SDS011;32023;44.444;26.006;2022-09-09T20:49:44;14.80;;;6.88;;
46290;SDS011;32023;44.444;26.006;2022-09-09T20:52:19;15.75;;;6.93;;